Time;durP1;ratioP1;P1;durP2;ratioP2;P2;SDS_P1;SDS_P2;PMS_P1;PMS_P2;Temp;Humidity;BMP_temperature;BMP_pressure;BME280_temperature;BME280_humidity;BME280_pressure;Samples;Min_cycle;Max_cycle;Signal;HPM_P1;HPM_P2
2022/12/09 00:01:11;;;;;;;52.83;26.02;;;;;;;3.26;100.00;100372.69;5092897;27;20051;-71
2022/12/09 00:03:38;;;;;;;61.70;29.52;;;;;;;3.27;100.00;100366.06;5098224;27;20047;-72
2022/12/09 00:06:11;;;;;;;54.75;27.33;;;;;;;3.26;100.00;100361.75;5097932;27;20070;-72
2022/12/09 00:08:38;;;;;;;57.42;28.45;;;;;;;3.25;100.00;100362.13;5093539;27;20147;-71
2022/12/09 00:11:05;;;;;;;62.47;29.10;;;;;;;3.25;100.00;100362.91;5102254;27;20059;-73
2022/12/09 00:13:32;;;;;;;59.95;30.35;;;;;;;3.30;100.00;100353.66;5087151;27;20047;-72
2022/12/09 00:15:59;;;;;;;48.60;24.52;;;;;;;3.29;100.00;100357.50;5096664;27;20054;-72
2022/12/09 00:18:26;;;;;;;62.13;29.23;;;;;;;3.31;100.00;100356.00;5100383;27;20079;-72
2022/12/09 00:20:52;;;;;;;33.35;16.30;;;;;;;3.28;100.00;100362.22;5098099;27;20048;-73
2022/12/09 00:23:19;;;;;;;51.33;23.15;;;;;;;3.27;100.00;100348.91;5097899;27;20176;-73
2022/12/09 00:25:46;;;;;;;59.38;27.35;;;;;;;3.31;100.00;100350.53;5095603;27;20079;-72
2022/12/09 00:28:13;;;;;;;58.65;28.95;;;;;;;3.33;100.00;100353.72;5091168;27;20051;-72
2022/12/09 00:30:39;;;;;;;31.95;15.77;;;;;;;3.27;100.00;100354.38;5092020;27;20051;-73
2022/12/09 00:33:06;;;;;;;52.25;26.60;;;;;;;3.30;100.00;100346.22;5101122;27;20058;-73
2022/12/09 00:35:33;;;;;;;54.30;26.08;;;;;;;3.29;100.00;100350.13;5094860;27;20056;-73
2022/12/09 00:37:59;;;;;;;55.83;26.15;;;;;;;3.30;100.00;100348.19;5101793;27;20047;-72
2022/12/09 00:40:26;;;;;;;51.20;25.88;;;;;;;3.31;100.00;100349.75;5095756;27;20427;-72
2022/12/09 00:42:52;;;;;;;57.70;27.27;;;;;;;3.31;100.00;100353.25;5094109;27;20059;-71
2022/12/09 00:45:19;;;;;;;61.47;28.05;;;;;;;3.32;100.00;100352.13;5095511;27;20052;-71
2022/12/09 00:47:45;;;;;;;50.88;23.70;;;;;;;3.31;100.00;100357.97;5098820;27;20146;-71
2022/12/09 00:50:12;;;;;;;56.03;28.13;;;;;;;3.33;100.00;100350.19;5092663;27;20047;-74
2022/12/09 00:52:38;;;;;;;57.45;26.40;;;;;;;3.33;100.00;100358.38;5094503;27;20055;-70
2022/12/09 00:55:05;;;;;;;47.75;22.75;;;;;;;3.31;100.00;100350.53;5092324;27;20052;-71
2022/12/09 00:57:32;;;;;;;53.53;25.98;;;;;;;3.34;100.00;100349.81;5098970;27;20051;-73
2022/12/09 00:59:59;;;;;;;58.00;27.42;;;;;;;3.35;100.00;100342.41;5100428;27;20054;-71
2022/12/09 01:02:25;;;;;;;54.75;25.00;;;;;;;3.35;100.00;100353.34;5095304;27;20058;-72
2022/12/09 01:04:52;;;;;;;51.83;25.67;;;;;;;3.35;100.00;100353.34;5099540;27;20048;-72
2022/12/09 01:07:19;;;;;;;55.85;26.55;;;;;;;3.35;100.00;100343.22;5098051;27;20051;-72
2022/12/09 01:09:45;;;;;;;50.28;25.90;;;;;;;3.37;100.00;100349.09;5097449;27;20047;-72
2022/12/09 01:12:12;;;;;;;52.47;26.02;;;;;;;3.38;100.00;100347.97;5097504;27;20057;-72
2022/12/09 01:14:39;;;;;;;58.78;28.85;;;;;;;3.39;100.00;100346.00;5100581;27;20047;-72
2022/12/09 01:17:05;;;;;;;63.53;28.80;;;;;;;3.42;100.00;100339.84;5093803;27;20054;-72
2022/12/09 01:19:33;;;;;;;54.05;27.05;;;;;;;3.36;100.00;100344.81;5092440;27;20052;-73
2022/12/09 01:21:59;;;;;;;60.35;27.05;;;;;;;3.44;100.00;100348.50;5096041;27;20054;-73
2022/12/09 01:24:26;;;;;;;55.67;28.00;;;;;;;3.47;100.00;100354.00;5095212;27;20895;-73
2022/12/09 01:26:53;;;;;;;52.28;24.90;;;;;;;3.43;100.00;100347.69;5097257;27;20400;-75
2022/12/09 01:29:20;;;;;;;59.55;26.38;;;;;;;3.48;100.00;100358.31;5094663;27;20082;-72
2022/12/09 01:31:46;;;;;;;58.00;27.27;;;;;;;3.48;100.00;100355.59;5092904;27;20471;-72
2022/12/09 01:34:13;;;;;;;55.58;26.13;;;;;;;3.48;100.00;100354.81;5100514;27;20047;-71
2022/12/09 01:36:40;;;;;;;53.38;28.08;;;;;;;3.48;100.00;100361.06;5095825;27;20091;-72
2022/12/09 01:39:06;;;;;;;56.78;24.80;;;;;;;3.44;100.00;100354.72;5089586;27;20054;-73
2022/12/09 01:41:34;;;;;;;43.50;19.13;;;;;;;3.41;100.00;100349.19;5101119;27;20043;-71
2022/12/09 01:44:09;;;;;;;52.90;24.73;;;;;;;3.43;100.00;100358.63;5094160;27;20039;-72
2022/12/09 01:46:36;;;;;;;56.08;27.70;;;;;;;3.47;100.00;100350.50;5100693;27;20053;-72
2022/12/09 01:49:04;;;;;;;62.47;29.88;;;;;;;3.47;100.00;100351.28;5095301;27;20055;-74
2022/12/09 01:51:31;;;;;;;53.72;26.20;;;;;;;3.46;100.00;100354.38;5095237;27;20043;-72
2022/12/09 01:53:58;;;;;;;55.72;29.17;;;;;;;3.44;100.00;100354.72;5099634;27;20151;-71
2022/12/09 01:56:31;;;;;;;53.45;24.52;;;;;;;3.44;100.00;100359.44;5097469;27;20063;-70
2022/12/09 01:59:03;;;;;;;57.55;28.50;;;;;;;3.42;100.00;100348.84;5106325;27;20054;-70
2022/12/09 02:01:29;;;;;;;59.88;30.23;;;;;;;3.46;100.00;100349.72;5098116;27;20662;-75
2022/12/09 02:03:56;;;;;;;61.88;30.00;;;;;;;3.45;100.00;100356.34;5097262;27;20197;-72
2022/12/09 02:06:23;;;;;;;63.10;27.58;;;;;;;3.46;100.00;100362.56;5098251;27;20074;-74
2022/12/09 02:08:50;;;;;;;59.83;30.58;;;;;;;3.50;100.00;100358.78;5092738;27;20135;-69
2022/12/09 02:11:35;;;;;;;56.92;28.23;;;;;;;3.49;100.00;100359.13;5090419;28;20055;-70
2022/12/09 02:14:05;;;;;;;63.00;29.63;;;;;;;3.50;100.00;100350.56;5094319;28;20050;-71
2022/12/09 02:16:39;;;;;;;59.03;28.42;;;;;;;3.49;100.00;100354.47;5094534;28;20880;-71
2022/12/09 02:19:09;;;;;;;;;;;;;;;3.51;100.00;100354.09;5092835;27;20158;-70
2022/12/09 02:21:52;;;;;;;58.65;28.13;;;;;;;3.50;100.00;100347.03;5094660;28;19924;-72
2022/12/09 02:24:48;;;;;;;50.15;25.25;;;;;;;3.48;100.00;100339.19;5093415;28;20139;-71
2022/12/09 02:27:22;;;;;;;57.75;25.90;;;;;;;3.49;100.00;100340.78;5042586;28;20159;-73
2022/12/09 02:30:13;;;;;;;63.92;30.10;;;;;;;3.48;100.00;100339.19;5052228;28;20052;-70
2022/12/09 02:33:01;;;;;;;56.83;26.63;;;;;;;3.45;100.00;100334.44;5049412;28;20634;-72
2022/12/09 02:35:36;;;;;;;56.83;28.83;;;;;;;3.46;100.00;100341.50;5051606;28;20942;-72
2022/12/09 02:38:12;;;;;;;59.10;30.17;;;;;;;3.49;100.00;100342.72;5055862;28;20044;-70
2022/12/09 02:40:47;;;;;;;57.63;27.98;;;;;;;3.48;100.00;100335.66;5054217;28;20054;-70
2022/12/09 02:43:18;;;;;;;58.10;27.42;;;;;;;3.45;100.00;100334.44;5057073;28;20143;-70
2022/12/09 02:45:47;;;;;;;60.67;29.30;;;;;;;3.46;100.00;100333.28;5087075;28;20533;-71
2022/12/09 02:48:16;;;;;;;60.92;29.95;;;;;;;3.50;100.00;100331.41;5106723;28;20087;-70
2022/12/09 02:50:45;;;;;;;55.85;27.60;;;;;;;3.49;100.00;100331.78;5107070;28;20047;-71
2022/12/09 02:53:14;;;;;;;58.03;27.55;;;;;;;3.49;100.00;100335.31;5102202;28;20048;-70
2022/12/09 02:55:42;;;;;;;55.30;28.65;;;;;;;3.52;100.00;100333.78;5106528;28;20050;-71
2022/12/09 02:58:09;;;;;;;57.60;26.85;;;;;;;3.49;100.00;100327.09;5105369;28;20133;-72
2022/12/09 03:00:37;;;;;;;60.60;27.80;;;;;;;3.49;100.00;100329.84;5106016;28;20411;-72
2022/12/09 03:03:09;;;;;;;57.97;27.48;;;;;;;3.52;100.00;100328.31;5107436;28;20067;-72
2022/12/09 03:05:55;;;;;;;57.35;27.55;;;;;;;3.54;100.00;100329.53;5107282;27;20486;-70
2022/12/09 03:08:41;;;;;;;59.28;29.33;;;;;;;3.56;100.00;100327.25;5106936;28;20055;-71
2022/12/09 03:11:11;;;;;;;56.72;27.85;;;;;;;3.59;100.00;100325.75;5105080;28;20052;-71
2022/12/09 03:14:02;;;;;;;63.78;30.17;;;;;;;3.59;100.00;100326.53;5100507;28;20039;-70
2022/12/09 03:16:34;;;;;;;56.13;26.30;;;;;;;3.59;100.00;100334.75;5108814;28;20044;-72
2022/12/09 03:19:20;;;;;;;67.30;29.27;;;;;;;3.60;100.00;100322.63;5110358;28;20062;-73
2022/12/09 03:21:50;;;;;;;55.03;27.42;;;;;;;3.58;100.00;100319.47;5101665;28;20051;-69
2022/12/09 03:24:21;;;;;;;52.92;24.58;;;;;;;3.56;100.00;100321.78;5108974;28;20131;-72
2022/12/09 03:26:50;;;;;;;58.55;28.63;;;;;;;3.61;100.00;100321.47;5110251;28;20043;-70
2022/12/09 03:29:22;;;;;;;57.85;26.85;;;;;;;3.56;100.00;100310.84;5108594;28;20081;-70
2022/12/09 03:31:50;;;;;;;63.08;28.65;;;;;;;3.60;100.00;100319.09;5108652;28;20048;-71
2022/12/09 03:34:23;;;;;;;60.67;30.30;;;;;;;3.58;100.00;100321.44;5105956;28;20039;-72
2022/12/09 03:36:51;;;;;;;63.45;29.45;;;;;;;3.58;100.00;100311.25;5107662;28;20055;-70
2022/12/09 03:39:24;;;;;;;57.03;29.08;;;;;;;3.58;100.00;100311.25;5111702;28;20138;-69
2022/12/09 03:41:55;;;;;;;59.25;28.58;;;;;;;3.54;100.00;100310.41;5110296;28;20059;-70
2022/12/09 03:44:29;;;;;;;59.85;28.55;;;;;;;3.51;100.00;100311.13;5106942;28;20055;-71
2022/12/09 03:46:56;;;;;;;59.97;28.20;;;;;;;3.52;100.00;100306.44;5110463;27;20095;-71
2022/12/09 03:49:22;;;;;;;63.78;30.15;;;;;;;3.44;100.00;100304.72;5109684;28;20062;-69
2022/12/09 03:51:55;;;;;;;55.75;25.50;;;;;;;3.42;100.00;100304.28;5109074;28;20047;-71
2022/12/09 03:54:42;;;;;;;65.30;29.05;;;;;;;3.45;100.00;100303.56;5107453;28;20093;-71
2022/12/09 03:57:14;;;;;;;59.70;30.40;;;;;;;3.46;100.00;100299.66;5105856;28;20051;-70
2022/12/09 03:59:52;;;;;;;72.32;30.42;;;;;;;3.46;100.00;100297.75;5109484;27;20424;-67
2022/12/09 04:02:19;;;;;;;57.77;29.63;;;;;;;3.49;100.00;100296.22;5108166;28;20044;-72
2022/12/09 04:04:46;;;;;;;63.42;30.67;;;;;;;3.52;100.00;100299.03;5109836;28;20516;-72
2022/12/09 04:07:13;;;;;;;55.60;27.77;;;;;;;3.51;100.00;100299.41;5108309;28;20059;-69
2022/12/09 04:09:39;;;;;;;61.85;29.13;;;;;;;3.46;100.00;100292.28;5107721;28;20496;-71
2022/12/09 04:12:06;;;;;;;63.47;27.85;;;;;;;3.46;100.00;100296.94;5108941;28;20484;-71
2022/12/09 04:14:33;;;;;;;60.40;29.67;;;;;;;3.47;100.00;100298.53;5102046;28;20051;-72
2022/12/09 04:17:00;;;;;;;59.47;28.75;;;;;;;3.43;100.00;100301.19;5109810;28;20096;-71
2022/12/09 04:19:27;;;;;;;55.78;28.33;;;;;;;3.43;100.00;100295.72;5108668;28;20492;-71
2022/12/09 04:21:54;;;;;;;52.50;25.98;;;;;;;3.42;100.00;100296.06;5107590;28;20040;-70
2022/12/09 04:24:21;;;;;;;59.92;27.60;;;;;;;3.41;100.00;100297.25;5106514;28;20044;-70
2022/12/09 04:26:48;;;;;;;63.58;29.60;;;;;;;3.41;100.00;100283.56;5107692;28;20052;-70
2022/12/09 04:29:14;;;;;;;56.35;27.88;;;;;;;3.43;100.00;100293.00;5108918;28;20053;-72
2022/12/09 04:31:41;;;;;;;54.92;27.95;;;;;;;3.44;100.00;100283.63;5108344;28;20075;-70
2022/12/09 04:34:08;;;;;;;58.83;28.38;;;;;;;3.43;100.00;100284.78;5108680;28;20408;-70
2022/12/09 04:36:36;;;;;;;62.13;29.75;;;;;;;3.42;100.00;100290.59;5108030;28;20055;-71
2022/12/09 04:39:03;;;;;;;65.03;30.38;;;;;;;3.40;100.00;100273.75;5108876;28;20047;-71
2022/12/09 04:41:30;;;;;;;59.15;27.60;;;;;;;3.39;100.00;100274.91;5109544;28;20054;-72
2022/12/09 04:43:57;;;;;;;57.75;29.35;;;;;;;3.37;100.00;100278.00;5108518;28;20039;-71
2022/12/09 04:46:23;;;;;;;60.05;28.17;;;;;;;3.37;100.00;100271.75;5107519;28;20090;-73
2022/12/09 04:48:51;;;;;;;63.67;31.02;;;;;;;3.37;100.00;100277.22;5108903;28;20066;-71
2022/12/09 04:51:18;;;;;;;61.80;30.05;;;;;;;3.35;100.00;100277.59;5108970;28;20094;-70
2022/12/09 04:53:45;;;;;;;63.88;30.38;;;;;;;3.34;100.00;100267.00;5108184;28;20038;-71
2022/12/09 04:56:20;;;;;;;60.95;29.27;;;;;;;3.32;100.00;100272.84;5110750;28;20051;-72
2022/12/09 04:58:47;;;;;;;;;;;;;;;3.33;100.00;100270.88;5110328;28;20043;-69
2022/12/09 05:01:17;;;;;;;57.58;28.17;;;;;;;3.31;100.00;100271.22;5104857;28;19920;-73
2022/12/09 05:03:49;;;;;;;52.95;26.75;;;;;;;3.29;100.00;100272.75;5109372;28;20057;-71
2022/12/09 05:06:17;;;;;;;57.78;27.80;;;;;;;3.28;100.00;100266.50;5108124;28;20117;-71
2022/12/09 05:08:45;;;;;;;58.67;28.08;;;;;;;3.26;100.00;100268.00;5107868;28;20048;-70
2022/12/09 05:11:16;;;;;;;69.93;29.55;;;;;;;3.26;100.00;100271.53;5104620;28;20052;-73
2022/12/09 05:13:44;;;;;;;55.67;26.92;;;;;;;3.28;100.00;100279.38;5105844;28;20479;-72
2022/12/09 05:16:13;;;;;;;53.60;26.95;;;;;;;3.29;100.00;100276.28;5107849;28;20057;-70
2022/12/09 05:18:43;;;;;;;55.28;26.90;;;;;;;3.28;100.00;100280.19;5106912;28;20046;-71
2022/12/09 05:21:14;;;;;;;56.00;27.90;;;;;;;3.29;100.00;100279.03;5106995;28;20051;-70
2022/12/09 05:23:42;;;;;;;56.88;27.23;;;;;;;3.27;100.00;100273.09;5103449;28;20058;-72
2022/12/09 05:26:12;;;;;;;48.90;26.17;;;;;;;3.27;100.00;100273.09;5103919;28;20070;-72
2022/12/09 05:28:38;;;;;;;53.90;27.30;;;;;;;3.23;100.00;100271.44;5106778;28;20454;-71
2022/12/09 05:31:09;;;;;;;53.67;27.13;;;;;;;3.14;100.00;100268.91;5105707;28;20055;-74
2022/12/09 05:33:36;;;;;;;56.85;26.70;;;;;;;3.14;100.00;100274.38;5106419;28;20043;-70
2022/12/09 05:36:07;;;;;;;56.97;27.13;;;;;;;3.10;100.00;100262.59;5108100;28;20066;-71
2022/12/09 05:38:34;;;;;;;54.25;25.65;;;;;;;3.07;100.00;100266.03;5106024;28;20049;-71
2022/12/09 05:41:00;;;;;;;60.78;27.92;;;;;;;3.06;100.00;100272.66;5106035;28;20182;-71
2022/12/09 05:43:27;;;;;;;66.13;30.23;;;;;;;3.09;100.00;100266.47;5108491;28;20093;-71
2022/12/09 05:45:54;;;;;;;59.40;30.90;;;;;;;3.10;100.00;100267.28;5106178;28;20104;-71
2022/12/09 05:48:21;;;;;;;61.35;29.88;;;;;;;3.12;100.00;100263.03;5105056;28;20074;-71
2022/12/09 05:50:58;;;;;;;54.83;26.75;;;;;;;3.16;100.00;100271.28;5107250;28;20054;-71
2022/12/09 05:53:25;;;;;;;51.13;24.33;;;;;;;3.15;100.00;100270.53;5105522;28;20062;-70
2022/12/09 05:55:52;;;;;;;51.78;26.25;;;;;;;3.15;100.00;100267.78;5106691;28;20150;-69
2022/12/09 05:58:19;;;;;;;51.58;26.73;;;;;;;3.13;100.00;100274.78;5106858;28;20055;-72
2022/12/09 06:00:46;;;;;;;61.80;27.00;;;;;;;3.10;100.00;100272.75;5107925;28;20079;-71
2022/12/09 06:03:13;;;;;;;61.47;29.13;;;;;;;3.09;100.00;100271.94;5107152;28;20075;-72
2022/12/09 06:05:40;;;;;;;55.63;26.73;;;;;;;3.07;100.00;100268.00;5107174;28;20134;-71
2022/12/09 06:08:07;;;;;;;55.08;26.73;;;;;;;3.06;100.00;100267.19;5107019;28;20051;-71
2022/12/09 06:10:38;;;;;;;61.53;28.77;;;;;;;3.04;100.00;100261.31;5104564;28;20047;-71
2022/12/09 06:13:06;;;;;;;54.92;27.13;;;;;;;3.04;100.00;100260.50;5107157;28;20755;-70
2022/12/09 06:15:33;;;;;;;49.05;26.48;;;;;;;2.98;100.00;100265.47;5106582;28;20047;-72
2022/12/09 06:18:00;;;;;;;49.28;25.85;;;;;;;2.91;100.00;100268.03;5107027;28;20047;-71
2022/12/09 06:20:27;;;;;;;57.47;28.42;;;;;;;2.91;100.00;100262.59;5105396;28;20459;-70
2022/12/09 06:22:55;;;;;;;57.00;26.52;;;;;;;2.89;100.00;100262.13;5107137;28;20075;-71
2022/12/09 06:25:21;;;;;;;57.45;27.38;;;;;;;2.89;100.00;100266.81;5106313;28;20116;-71
2022/12/09 06:27:50;;;;;;;62.13;28.75;;;;;;;2.83;100.00;100263.56;5107179;28;20047;-71
2022/12/09 06:30:16;;;;;;;59.42;28.90;;;;;;;2.78;100.00;100259.16;5105102;28;20063;-72
2022/12/09 06:32:43;;;;;;;61.35;29.00;;;;;;;2.79;100.00;100268.16;5106153;28;20097;-69
2022/12/09 06:35:10;;;;;;;53.35;27.10;;;;;;;2.75;100.00;100261.81;5107227;28;20146;-70
2022/12/09 06:37:37;;;;;;;53.80;28.13;;;;;;;2.70;100.00;100262.09;5110396;28;20047;-70
2022/12/09 06:40:04;;;;;;;56.63;28.38;;;;;;;2.64;100.00;100267.03;5108095;28;20138;-69
2022/12/09 06:42:31;;;;;;;59.78;29.40;;;;;;;2.57;100.00;100268.81;5111125;28;20040;-71
2022/12/09 06:44:58;;;;;;;67.75;31.83;;;;;;;2.57;100.00;100264.13;5109932;28;20159;-73
2022/12/09 06:47:24;;;;;;;66.90;34.88;;;;;;;2.62;100.00;100268.53;5111560;28;20062;-71
2022/12/09 06:49:51;;;;;;;65.18;33.33;;;;;;;2.59;100.00;100267.31;5108162;28;20081;-70
2022/12/09 06:52:18;;;;;;;44.13;22.30;;;;;;;2.53;100.00;100271.47;5109621;28;20431;-71
2022/12/09 06:54:45;;;;;;;38.67;19.13;;;;;;;2.53;100.00;100259.72;5108257;28;20043;-71
2022/12/09 06:57:12;;;;;;;60.85;29.80;;;;;;;2.57;100.00;100266.09;5110348;28;20051;-72
2022/12/09 06:59:38;;;;;;;69.20;32.83;;;;;;;2.61;100.00;100270.47;5108983;28;20049;-70
2022/12/09 07:02:06;;;;;;;62.70;29.08;;;;;;;2.64;100.00;100274.44;5110449;28;20047;-72
2022/12/09 07:04:33;;;;;;;67.10;31.05;;;;;;;2.63;100.00;100273.66;5110567;28;20043;-72
2022/12/09 07:06:59;;;;;;;59.83;30.80;;;;;;;2.65;100.00;100279.56;5105918;28;20586;-71
2022/12/09 07:09:26;;;;;;;65.88;32.42;;;;;;;2.68;100.00;100283.50;5110011;28;20098;-70
2022/12/09 07:11:53;;;;;;;59.05;29.50;;;;;;;2.67;100.00;100279.22;5110650;28;20060;-72
2022/12/09 07:14:20;;;;;;;63.47;31.40;;;;;;;2.60;100.00;100287.25;5111289;28;20047;-73
2022/12/09 07:16:47;;;;;;;65.40;30.60;;;;;;;2.58;100.00;100294.97;5110123;28;20047;-71
2022/12/09 07:19:19;;;;;;;67.15;31.42;;;;;;;2.55;100.00;100292.94;5110650;27;20622;-71
2022/12/09 07:21:48;;;;;;;62.72;31.50;;;;;;;2.57;100.00;100287.94;5105719;28;20063;-71
2022/12/09 07:24:17;;;;;;;62.72;32.28;;;;;;;2.65;100.00;100295.16;5106206;28;20055;-71
2022/12/09 07:26:45;;;;;;;62.63;31.42;;;;;;;2.71;100.00;100294.50;5101648;28;20112;-72
2022/12/09 07:29:12;;;;;;;61.80;30.48;;;;;;;2.72;100.00;100296.13;5109455;28;20048;-71
2022/12/09 07:31:39;;;;;;;64.68;31.88;;;;;;;2.75;100.00;100294.59;5102215;28;20573;-70
2022/12/09 07:34:06;;;;;;;61.85;30.20;;;;;;;2.81;100.00;100301.38;5108331;28;20543;-71
2022/12/09 07:36:34;;;;;;;68.85;35.75;;;;;;;2.81;100.00;100290.47;5115530;27;20119;-71
2022/12/09 07:39:08;;;;;;;70.63;34.97;;;;;;;2.84;100.00;100303.41;5108403;27;20047;-73
2022/12/09 07:41:35;;;;;;;72.75;36.70;;;;;;;2.87;100.00;100310.09;5107099;27;20052;-74
2022/12/09 07:44:02;;;;;;;68.15;35.38;;;;;;;2.88;100.00;100304.28;5113403;27;20040;-71
2022/12/09 07:46:29;;;;;;;65.78;34.22;;;;;;;2.90;100.00;100303.94;5116436;27;20445;-74
2022/12/09 07:48:57;;;;;;;78.50;40.85;;;;;;;2.91;100.00;100302.78;5111301;27;20052;-71
2022/12/09 07:51:24;;;;;;;104.03;58.67;;;;;;;2.96;100.00;100305.25;5101626;28;20047;-70
2022/12/09 07:53:51;;;;;;;99.80;56.90;;;;;;;2.97;100.00;100309.56;5106887;28;20066;-71
2022/12/09 07:56:20;;;;;;;81.43;42.08;;;;;;;3.01;100.00;100307.69;5109186;28;20142;-70
2022/12/09 07:58:49;;;;;;;66.75;33.20;;;;;;;3.00;100.00;100309.63;5109458;28;20488;-71
2022/12/09 08:01:25;;;;;;;63.55;32.10;;;;;;;3.02;100.00;100312.78;5100126;28;20405;-72
2022/12/09 08:03:53;;;;;;;63.78;33.15;;;;;;;3.05;100.00;100308.56;5109652;28;20487;-69
2022/12/09 08:06:24;;;;;;;66.05;33.40;;;;;;;3.09;100.00;100312.16;5110901;28;20071;-73
2022/12/09 08:08:52;;;;;;;68.28;35.55;;;;;;;3.10;100.00;100317.25;5108205;28;20043;-71
2022/12/09 08:11:22;;;;;;;63.15;32.60;;;;;;;3.10;100.00;100317.25;5107795;27;20044;-69
2022/12/09 08:13:50;;;;;;;69.82;34.80;;;;;;;3.14;100.00;100322.81;5109475;28;20052;-71
2022/12/09 08:16:19;;;;;;;66.57;30.70;;;;;;;3.14;100.00;100322.81;5110111;28;20044;-71
2022/12/09 08:18:48;;;;;;;74.38;36.90;;;;;;;3.10;100.00;100322.72;5114132;27;20054;-71
2022/12/09 08:21:20;;;;;;;76.68;35.67;;;;;;;3.10;100.00;100320.00;5109272;27;20062;-71
2022/12/09 08:23:47;;;;;;;61.85;32.03;;;;;;;3.16;100.00;100328.72;5107521;28;20044;-72
2022/12/09 08:26:17;;;;;;;70.35;33.28;;;;;;;3.08;100.00;100335.97;5108389;28;20055;-75
2022/12/09 08:28:44;;;;;;;61.90;29.40;;;;;;;3.05;100.00;100320.28;5109648;27;20062;-71
2022/12/09 08:31:15;;;;;;;65.63;33.10;;;;;;;3.10;100.00;100330.16;5109734;28;20092;-72
2022/12/09 08:33:42;;;;;;;57.53;28.38;;;;;;;3.11;100.00;100332.53;5106666;28;20065;-75
2022/12/09 08:36:13;;;;;;;65.88;29.02;;;;;;;3.15;100.00;100327.13;5105826;28;20050;-73
2022/12/09 08:38:41;;;;;;;62.92;30.80;;;;;;;3.17;100.00;100324.84;5108958;28;20047;-71
2022/12/09 08:41:12;;;;;;;69.60;33.30;;;;;;;3.18;100.00;100319.03;5106650;28;20418;-71
2022/12/09 08:43:40;;;;;;;61.33;31.92;;;;;;;3.15;100.00;100324.41;5107344;28;20141;-74
2022/12/09 08:46:07;;;;;;;64.72;32.35;;;;;;;3.18;100.00;100321.75;5106733;28;20630;-71
2022/12/09 08:48:36;;;;;;;56.25;29.75;;;;;;;3.22;100.00;100324.56;5107204;28;20053;-72
2022/12/09 08:51:04;;;;;;;56.50;29.58;;;;;;;3.24;100.00;100328.50;5107199;27;20047;-75
2022/12/09 08:53:31;;;;;;;59.58;29.58;;;;;;;3.25;100.00;100324.63;5106395;28;20044;-72
2022/12/09 08:55:58;;;;;;;55.90;28.02;;;;;;;3.29;100.00;100328.25;5107813;28;20097;-71
2022/12/09 08:58:25;;;;;;;52.90;26.92;;;;;;;3.34;100.00;100325.22;5106192;28;20130;-72
2022/12/09 09:00:52;;;;;;;53.75;27.48;;;;;;;3.35;100.00;100324.09;5104351;28;20078;-72
2022/12/09 09:03:19;;;;;;;53.58;26.65;;;;;;;3.37;100.00;100329.19;5106592;28;20559;-72
2022/12/09 09:05:46;;;;;;;53.90;24.58;;;;;;;3.35;100.00;100331.47;5109374;28;20047;-71
2022/12/09 09:08:13;;;;;;;46.45;21.58;;;;;;;3.32;100.00;100324.00;5108762;28;20051;-73
2022/12/09 09:10:40;;;;;;;43.30;20.95;;;;;;;3.32;100.00;100332.19;5106038;28;20101;-72
2022/12/09 09:13:07;;;;;;;41.17;22.42;;;;;;;3.34;100.00;100333.41;5105784;28;20051;-71
2022/12/09 09:15:33;;;;;;;45.05;20.80;;;;;;;3.35;100.00;100329.53;5108516;28;20043;-72
2022/12/09 09:18:00;;;;;;;42.50;22.08;;;;;;;3.38;100.00;100338.97;5108330;28;20063;-70
2022/12/09 09:20:27;;;;;;;44.35;20.38;;;;;;;3.34;100.00;100330.69;5106142;28;20047;-72
2022/12/09 09:22:54;;;;;;;41.80;21.00;;;;;;;3.30;100.00;100320.84;5105274;28;20050;-71
2022/12/09 09:25:28;;;;;;;40.58;20.85;;;;;;;3.42;100.00;100334.38;5103066;28;20036;-71
2022/12/09 09:27:55;;;;;;;36.75;19.52;;;;;;;3.38;100.00;100323.38;5107843;28;20039;-72
2022/12/09 09:30:22;;;;;;;39.83;19.20;;;;;;;3.39;100.00;100335.06;5106665;28;20058;-72
2022/12/09 09:32:49;;;;;;;38.80;19.25;;;;;;;3.35;100.00;100335.03;5108001;28;20121;-72
2022/12/09 09:35:15;;;;;;;38.42;19.55;;;;;;;3.40;100.00;100336.66;5104596;28;20103;-73
2022/12/09 09:37:42;;;;;;;46.50;19.38;;;;;;;3.36;100.00;100341.25;5105288;28;20051;-74
2022/12/09 09:40:09;;;;;;;45.00;20.40;;;;;;;3.36;100.00;100333.84;5106634;28;20043;-69
2022/12/09 09:42:46;;;;;;;41.47;19.90;;;;;;;3.38;100.00;100341.72;5106963;28;20416;-72
2022/12/09 09:45:18;;;;;;;49.47;21.98;;;;;;;3.37;100.00;100332.69;5106317;28;20048;-71
2022/12/09 09:47:50;;;;;;;41.30;21.23;;;;;;;3.38;100.00;100334.31;5103454;28;20055;-72
2022/12/09 09:50:34;;;;;;;47.67;22.70;;;;;;;3.42;100.00;100323.44;5104834;28;20142;-70
2022/12/09 09:53:16;;;;;;;45.60;22.77;;;;;;;3.43;100.00;100325.81;5104439;28;20051;-72
2022/12/09 09:55:53;;;;;;;46.88;21.13;;;;;;;3.43;100.00;100316.78;5105208;28;20050;-72
2022/12/09 09:58:34;;;;;;;39.78;20.80;;;;;;;3.53;100.00;100321.69;5106183;28;20104;-70
2022/12/09 10:01:06;;;;;;;42.75;20.58;;;;;;;3.59;100.00;100321.06;5106717;28;20047;-71
2022/12/09 10:03:57;;;;;;;36.78;18.90;;;;;;;3.58;100.00;100324.16;5100468;28;20451;-74
2022/12/09 10:06:45;;;;;;;43.25;20.63;;;;;;;3.62;100.00;100327.75;5105862;28;20784;-72
2022/12/09 10:09:44;;;;;;;41.42;20.35;;;;;;;3.67;100.00;100320.06;5105480;28;20051;-73
2022/12/09 10:12:34;;;;;;;38.97;19.90;;;;;;;3.73;100.00;100315.06;5104764;28;20051;-73
2022/12/09 10:15:39;;;;;;;42.58;21.90;;;;;;;3.73;100.00;100317.81;5105759;28;20096;-75
2022/12/09 10:18:24;;;;;;;44.20;21.65;;;;;;;3.75;100.00;100304.56;5065154;28;20067;-72
2022/12/09 10:20:52;;;;;;;40.53;19.70;;;;;;;3.79;100.00;100308.97;5104709;28;20054;-71
2022/12/09 10:23:20;;;;;;;37.95;17.85;;;;;;;3.85;100.00;100307.50;5105774;28;20135;-74
2022/12/09 10:25:55;;;;;;;41.38;18.95;;;;;;;3.85;100.00;100306.72;5105581;28;20044;-73
2022/12/09 10:28:24;;;;;;;;;;;;;;;3.90;100.00;100306.41;5107513;27;20059;-73
2022/12/09 10:30:53;;;;;;;43.28;19.77;;;;;;;3.97;100.00;100307.34;5100988;28;19924;-72
2022/12/09 10:33:32;;;;;;;42.10;19.13;;;;;;;3.97;100.00;100306.53;5105833;28;20074;-72
2022/12/09 10:36:00;;;;;;;45.60;19.63;;;;;;;3.99;100.00;100309.72;5106829;28;20060;-72
2022/12/09 10:38:28;;;;;;;40.00;18.45;;;;;;;3.94;100.00;100294.38;5106810;28;20044;-73
2022/12/09 10:40:55;;;;;;;40.30;18.27;;;;;;;4.02;100.00;100309.00;5105707;28;20060;-73
2022/12/09 10:43:35;;;;;;;36.80;17.27;;;;;;;3.95;100.00;100309.66;5107176;28;20052;-74
2022/12/09 10:46:29;;;;;;;40.03;17.42;;;;;;;3.93;100.00;100306.50;5101885;28;20044;-73
2022/12/09 10:49:02;;;;;;;43.20;18.77;;;;;;;3.99;100.00;100305.06;5097085;28;20052;-73
2022/12/09 10:51:48;;;;;;;56.17;25.70;;;;;;;4.05;100.00;100303.56;5103053;28;20074;-74
2022/12/09 10:54:24;;;;;;;39.47;17.98;;;;;;;4.03;100.00;100303.16;5103876;28;20107;-73
2022/12/09 10:57:15;;;;;;;43.80;19.75;;;;;;;4.03;100.00;100305.09;5106157;28;20506;-71
2022/12/09 10:59:57;;;;;;;44.85;19.88;;;;;;;4.02;100.00;100306.25;5102576;28;20047;-71
2022/12/09 11:02:26;;;;;;;42.83;21.67;;;;;;;4.09;100.00;100304.44;5095599;28;20108;-72
2022/12/09 11:04:54;;;;;;;42.35;20.45;;;;;;;4.18;100.00;100302.25;5094199;28;20138;-72
2022/12/09 11:07:26;;;;;;;40.80;20.13;;;;;;;4.19;100.00;100301.09;5103653;28;20059;-72
2022/12/09 11:09:56;;;;;;;43.00;22.20;;;;;;;4.23;100.00;100301.97;5103853;28;20047;-71
2022/12/09 11:12:26;;;;;;;43.80;20.83;;;;;;;4.27;100.00;100299.28;5104145;28;21188;-73
2022/12/09 11:14:58;;;;;;;42.83;21.13;;;;;;;4.24;100.00;100294.53;5102253;28;20054;-72
2022/12/09 11:17:35;;;;;;;42.33;21.25;;;;;;;4.25;100.00;100285.94;5105865;28;20169;-72
2022/12/09 11:20:05;;;;;;;51.30;21.77;;;;;;;4.29;100.00;100286.78;5103851;28;20061;-72
2022/12/09 11:22:39;;;;;;;44.92;21.42;;;;;;;4.31;100.00;100284.50;5105497;28;20134;-72